Terminal Aerodrome Forecast
Issued by NWS

Home | Current Version | Previous Version | Text Only | Print | Product List | Glossary On
Versions: 1 2 3 4 5 6 7 8 9 10 11 12 13 14 15
000
FTUS43 KBIS 280530
TAFDIK
TAF
KDIK 280530Z 2806/2906 17008KT P6SM SCT250
     FM281400 20008KT P6SM SCT250
     FM281700 23010KT P6SM FEW250
     FM282000 26012KT P6SM FEW250
     FM290100 30012KT P6SM SCT120 BKN250
     FM290400 33010KT P6SM SCT100 BKN250=

USA.gov is the U.S. government's official web portal to all federal, state and local government web resources and services.